Kramer Junction, CA

1:39 PM PST on December 09, 2016 (GMT -0800)
Edwards AFB North Base | | Change Station

Elev 2300 ft 34.99 °N, 117.86 °W | Updated 41 minutes ago

Partly Cloudy
Partly Cloudy
66 °F
Feels Like 66 °F
N
16
Wind Variable Wind from WSW

Today
High -- | Low -- °F
--% Chance of Precip.
Yesterday
High -- | Low -- °F
Precip. -- in
Pressure 30.14 in
Visibility 7.0 miles
Clouds Few 27000 ft
Dew Point 46 °F
Humidity 49%
Rainfall 0.00 in
Snow Depth Not available.
6:47 AM 4:38 PM
Waxing Gibbous, 77% visible
METAR K9L2 092058Z AUTO 24014KT 7SM FEW270 19/08 A3017 RMK AO2 SLP206 T01870077 57019
Pressure 30.14 in
Visibility 7.0 miles
Clouds Few 27000 ft
Dew Point 46 °F
Humidity 49%
Rainfall 0.00 in
Snow Depth Not available.
6:47 AM 4:38 PM
Waxing Gibbous, 77% visible
METAR K9L2 092058Z AUTO 24014KT 7SM FEW270 19/08 A3017 RMK AO2 SLP206 T01870077 57019

10-Day Weather Forecast

Almanac

Astronomy

Dec. 09, 2016 Rise Set
Actual Time
Civil Twilight
Nautical Twilight
Astronomical Twilight
Moon
Length of Visible Light
Length of Day
Tomorrow will be .
, % of the Moon is Illuminated

Today's Extremes

State Highs State Lows

Community

WunderPhotos

Upload Photos

1,956,517 photos uploaded!

WunderBlog® & News

Nearby

Air Quality

  Air Quality AQ Index Pollutant
Not available.

Snow Depth

Station Depth Elevation

Earthquake Activity

City Distance Mag. Time & Date
Minimum magnitude displayed is 2.5.

Coastal Water Temperatures

Place Temperature

Stations

Nearby Weather Stations

Station Location Temp. Windchill Dew Point Humidity Wind Precip. Elev Updated Type
                   

Watches & Warnings

There are currently no watches in effect.